Time;durP1;ratioP1;P1;durP2;ratioP2;P2;SDS_P1;SDS_P2;PMS_P1;PMS_P2;Temp;Humidity;BMP_temperature;BMP_pressure;BME280_temperature;BME280_humidity;BME280_pressure;Samples;Min_cycle;Max_cycle;Signal;HPM_P1;HPM_P2
2021/07/02 00:00:07;;;;;;;10.32;5.68;;;;;;;12.74;100.00;96117.50;1032192;28;20080;-52
2021/07/02 00:00:37;;;;;;;7.65;5.00;;;;;;;12.70;100.00;96112.59;1032219;28;20097;-52
2021/07/02 00:01:08;;;;;;;10.95;5.70;;;;;;;12.70;100.00;96115.22;1032100;28;20026;-51
2021/07/02 00:01:39;;;;;;;10.57;5.32;;;;;;;12.64;100.00;96112.09;1032314;28;20072;-53
2021/07/02 00:02:10;;;;;;;8.25;5.20;;;;;;;12.63;100.00;96112.22;1031769;28;20547;-50
2021/07/02 00:02:41;;;;;;;8.13;5.38;;;;;;;12.64;100.00;96111.28;1031799;28;20206;-51
2021/07/02 00:03:15;;;;;;;12.15;5.70;;;;;;;12.61;100.00;96117.63;1031747;28;20022;-52
2021/07/02 00:03:46;;;;;;;13.32;6.10;;;;;;;12.62;100.00;96116.66;1031345;28;20054;-52
2021/07/02 00:04:16;;;;;;;8.90;5.53;;;;;;;12.69;100.00;96116.16;1032202;28;20027;-52
2021/07/02 00:04:47;;;;;;;13.90;5.82;;;;;;;12.64;100.00;96117.34;1032301;28;20018;-52
2021/07/02 00:05:18;;;;;;;9.10;5.40;;;;;;;12.63;100.00;96115.69;1032056;28;20038;-52
2021/07/02 00:05:48;;;;;;;7.53;5.13;;;;;;;12.61;100.00;96114.13;1032258;28;20010;-51
2021/07/02 00:06:19;;;;;;;9.65;5.53;;;;;;;12.59;100.00;96116.03;1032231;28;20076;-52
2021/07/02 00:06:49;;;;;;;9.57;5.90;;;;;;;12.60;100.00;96104.59;1032283;28;20022;-51
2021/07/02 00:07:20;;;;;;;10.25;5.38;;;;;;;12.56;100.00;96113.66;1032100;28;20493;-51
2021/07/02 00:07:51;;;;;;;8.77;5.90;;;;;;;12.55;100.00;96114.59;1032248;28;20477;-52
2021/07/02 00:08:25;;;;;;;10.55;5.15;;;;;;;12.52;100.00;96112.19;1032164;28;20050;-52
2021/07/02 00:08:56;;;;;;;8.75;5.35;;;;;;;12.55;100.00;96118.06;1032284;28;20464;-52
2021/07/02 00:09:27;;;;;;;10.75;5.30;;;;;;;12.52;100.00;96113.06;1032089;28;20022;-51
2021/07/02 00:09:57;;;;;;;8.48;5.85;;;;;;;12.54;100.00;96102.44;1032159;28;20018;-51
2021/07/02 00:10:28;;;;;;;10.55;6.00;;;;;;;12.53;100.00;96111.25;1032238;28;20074;-51
2021/07/02 00:10:59;;;;;;;13.18;5.22;;;;;;;12.47;100.00;96109.09;1032277;28;20392;-53
2021/07/02 00:11:29;;;;;;;7.10;5.22;;;;;;;12.47;100.00;96109.91;1031931;28;20019;-50
2021/07/02 00:12:00;;;;;;;9.73;5.50;;;;;;;12.46;100.00;96113.50;1032195;28;20038;-50
2021/07/02 00:12:31;;;;;;;10.38;5.40;;;;;;;12.46;100.00;96108.22;1031997;28;20147;-51
2021/07/02 00:13:02;;;;;;;9.38;5.90;;;;;;;12.43;100.00;96114.56;1032230;28;20097;-52
2021/07/02 00:13:32;;;;;;;11.30;5.97;;;;;;;12.45;100.00;96106.56;1031649;28;20384;-51
2021/07/02 00:14:04;;;;;;;12.13;6.13;;;;;;;12.47;100.00;96111.72;1031956;28;20018;-52
2021/07/02 00:14:34;;;;;;;11.45;5.55;;;;;;;12.52;100.00;96114.81;1032159;28;20033;-51
2021/07/02 00:15:07;;;;;;;11.15;6.00;;;;;;;12.52;100.00;96107.78;1032284;28;20428;-52
2021/07/02 00:15:37;;;;;;;10.68;6.40;;;;;;;12.53;100.00;96112.06;1032100;28;20046;-53
2021/07/02 00:16:08;;;;;;;10.15;6.18;;;;;;;12.50;100.00;96114.97;1032095;28;20026;-51
2021/07/02 00:16:39;;;;;;;11.90;5.57;;;;;;;12.50;100.00;96111.47;1032024;28;20026;-51
2021/07/02 00:17:10;;;;;;;12.52;6.28;;;;;;;12.47;100.00;96116.97;1032081;28;20018;-50
2021/07/02 00:17:41;;;;;;;12.57;6.18;;;;;;;12.40;100.00;96103.44;1032054;28;20046;-51
2021/07/02 00:18:11;;;;;;;16.50;6.50;;;;;;;12.36;100.00;96113.34;1032163;28;20018;-52
2021/07/02 00:18:42;;;;;;;16.92;6.53;;;;;;;12.37;100.00;96114.19;1032186;28;20045;-49
2021/07/02 00:19:13;;;;;;;11.15;5.80;;;;;;;12.35;100.00;96108.19;1032107;28;20041;-51
2021/07/02 00:19:44;;;;;;;8.88;6.07;;;;;;;12.29;100.00;96108.66;1032021;28;20030;-51
2021/07/02 00:20:14;;;;;;;10.48;6.75;;;;;;;12.24;100.00;96109.03;1031689;28;20018;-50
2021/07/02 00:20:45;;;;;;;9.77;6.28;;;;;;;12.22;100.00;96116.19;1031905;28;20026;-48
2021/07/02 00:21:16;;;;;;;10.82;6.30;;;;;;;12.15;100.00;96112.34;1031856;28;20590;-51
2021/07/02 00:21:47;;;;;;;10.00;6.28;;;;;;;12.21;100.00;96115.31;1031879;28;20468;-51
2021/07/02 00:22:17;;;;;;;13.07;6.53;;;;;;;12.27;100.00;96114.03;1031937;28;20022;-52
2021/07/02 00:22:48;;;;;;;10.35;6.38;;;;;;;12.27;100.00;96115.84;1032118;28;20022;-51
2021/07/02 00:23:19;;;;;;;12.35;6.55;;;;;;;12.29;100.00;96111.28;1031877;28;20064;-51
2021/07/02 00:23:49;;;;;;;12.15;7.38;;;;;;;12.32;100.00;96111.06;1031230;28;20042;-50
2021/07/02 00:24:20;;;;;;;10.18;6.00;;;;;;;12.29;100.00;96111.28;1031679;28;20508;-52
2021/07/02 00:24:50;;;;;;;10.52;5.93;;;;;;;12.29;100.00;96119.19;1031805;28;20624;-52
2021/07/02 00:25:21;;;;;;;15.88;7.28;;;;;;;12.29;100.00;96111.28;1032206;28;20030;-51
2021/07/02 00:25:52;;;;;;;12.27;6.60;;;;;;;12.33;100.00;96110.09;1032098;28;20033;-52
2021/07/02 00:26:23;;;;;;;12.20;6.70;;;;;;;12.30;100.00;96108.56;1031973;28;20022;-51
2021/07/02 00:26:53;;;;;;;11.60;7.00;;;;;;;12.19;100.00;96092.75;1032159;28;20037;-51
2021/07/02 00:27:24;;;;;;;11.15;6.55;;;;;;;12.27;100.00;96107.94;1032191;28;20025;-52
2021/07/02 00:27:56;;;;;;;16.40;7.20;;;;;;;12.30;100.00;96111.19;1032173;28;20500;-51
2021/07/02 00:28:27;;;;;;;11.85;6.97;;;;;;;12.29;100.00;96103.41;1031921;28;20022;-51
2021/07/02 00:28:57;;;;;;;13.88;6.80;;;;;;;12.29;100.00;96112.13;1032230;28;20049;-50
2021/07/02 00:29:28;;;;;;;12.95;6.65;;;;;;;12.25;100.00;96111.50;1032189;28;20025;-52
2021/07/02 00:29:59;;;;;;;11.30;6.57;;;;;;;12.23;100.00;96108.16;1032166;28;20097;-52
2021/07/02 00:30:30;;;;;;;10.90;6.78;;;;;;;12.18;100.00;96104.22;1031959;28;20030;-53
2021/07/02 00:31:00;;;;;;;10.93;7.13;;;;;;;12.16;100.00;96103.47;1032111;28;20014;-51
2021/07/02 00:31:31;;;;;;;14.07;6.78;;;;;;;12.14;100.00;96108.84;1032138;28;20026;-52
2021/07/02 00:32:02;;;;;;;12.07;7.28;;;;;;;12.14;100.00;96108.03;1032143;28;20050;-49
2021/07/02 00:32:34;;;;;;;12.30;7.03;;;;;;;12.15;100.00;96110.53;1031814;28;20076;-52
2021/07/02 00:33:04;;;;;;;18.05;7.05;;;;;;;12.13;100.00;96115.06;1032143;28;20022;-51
2021/07/02 00:33:35;;;;;;;17.10;8.07;;;;;;;12.14;100.00;96113.28;1031674;28;20042;-51
2021/07/02 00:34:06;;;;;;;15.00;7.53;;;;;;;12.12;100.00;96115.19;1031811;28;20046;-50
2021/07/02 00:34:37;;;;;;;12.68;7.30;;;;;;;12.08;100.00;96109.31;1031580;28;20476;-52
2021/07/02 00:35:08;;;;;;;13.02;8.07;;;;;;;12.08;100.00;96108.47;1031115;28;20033;-52
2021/07/02 00:35:41;;;;;;;15.52;8.00;;;;;;;12.01;100.00;96105.44;1032214;28;20516;-51
2021/07/02 00:36:11;;;;;;;15.07;7.78;;;;;;;11.97;100.00;96107.47;1031730;28;20025;-52
2021/07/02 00:36:42;;;;;;;10.73;7.13;;;;;;;11.91;100.00;96104.47;1031958;28;20061;-50
2021/07/02 00:37:13;;;;;;;10.77;6.75;;;;;;;11.88;100.00;96108.13;1031994;28;20093;-51
2021/07/02 00:37:43;;;;;;;12.60;7.80;;;;;;;11.87;100.00;96109.91;1032109;28;20022;-51
2021/07/02 00:38:14;;;;;;;11.38;7.07;;;;;;;11.93;100.00;96113.91;1032068;28;20064;-51
2021/07/02 00:38:44;;;;;;;11.55;6.80;;;;;;;11.95;100.00;96108.53;1031945;28;20054;-49
2021/07/02 00:39:15;;;;;;;14.45;7.35;;;;;;;11.96;100.00;96108.44;1035829;28;20427;-51
2021/07/02 00:39:45;;;;;;;16.73;8.07;;;;;;;11.96;100.00;96111.06;1035952;28;20030;-51
2021/07/02 00:40:16;;;;;;;14.90;7.93;;;;;;;11.98;100.00;96105.69;1035771;28;20105;-51
2021/07/02 00:40:47;;;;;;;12.07;8.13;;;;;;;11.97;100.00;96111.88;1035694;28;20105;-51
2021/07/02 00:41:18;;;;;;;14.63;7.38;;;;;;;11.96;100.00;96112.84;1031910;28;20408;-51
2021/07/02 00:41:48;;;;;;;12.73;7.30;;;;;;;11.96;100.00;96110.22;1032098;28;20507;-53
2021/07/02 00:42:19;;;;;;;11.70;7.43;;;;;;;11.93;100.00;96111.28;1032009;28;20029;-52
2021/07/02 00:42:49;;;;;;;13.05;7.70;;;;;;;11.96;100.00;96110.22;1032095;28;20173;-51
2021/07/02 00:43:20;;;;;;;13.57;7.13;;;;;;;11.92;100.00;96109.63;1035689;28;20456;-50
2021/07/02 00:43:51;;;;;;;14.20;7.30;;;;;;;11.93;100.00;96110.44;1035271;28;20026;-52
2021/07/02 00:44:41;;;;;;;14.10;8.35;;;;;;;11.94;100.00;96110.34;1035755;28;20017;-51
2021/07/02 00:45:12;;;;;;;14.43;7.63;;;;;;;11.87;100.00;96115.16;1033106;28;20022;-51
2021/07/02 00:45:43;;;;;;;16.75;8.80;;;;;;;11.90;100.00;96102.78;1032180;28;20444;-51
2021/07/02 00:46:15;;;;;;;20.50;8.38;;;;;;;11.89;100.00;96109.78;1032101;28;20084;-51
2021/07/02 00:46:45;;;;;;;18.50;7.45;;;;;;;11.91;100.00;96107.09;1032043;28;20511;-49
2021/07/02 00:47:17;;;;;;;13.98;8.30;;;;;;;11.87;100.00;96112.53;1031776;28;20025;-51
2021/07/02 00:47:48;;;;;;;22.10;8.20;;;;;;;11.88;100.00;96108.13;1032147;28;20472;-51
2021/07/02 00:48:19;;;;;;;13.30;8.02;;;;;;;11.84;100.00;96111.91;1032115;28;20014;-52
2021/07/02 00:48:50;;;;;;;17.20;8.43;;;;;;;11.85;100.00;96111.81;1032084;28;20030;-52
2021/07/02 00:49:20;;;;;;;15.88;8.35;;;;;;;11.90;100.00;96110.66;1031901;28;20029;-51
2021/07/02 00:49:51;;;;;;;12.73;7.65;;;;;;;11.87;100.00;96109.91;1032105;28;20022;-52
2021/07/02 00:50:21;;;;;;;19.02;8.45;;;;;;;11.89;100.00;96103.72;1032023;28;20101;-51
2021/07/02 00:50:52;;;;;;;15.57;8.43;;;;;;;11.87;100.00;96107.28;1032021;28;20484;-51
2021/07/02 00:51:23;;;;;;;18.35;8.15;;;;;;;11.84;100.00;96107.53;1031922;28;20357;-52
2021/07/02 00:51:53;;;;;;;18.00;8.30;;;;;;;11.83;100.00;96111.06;1032121;28;20076;-51
2021/07/02 00:52:24;;;;;;;15.88;8.45;;;;;;;11.84;100.00;96102.25;1031969;28;20439;-51
2021/07/02 00:52:55;;;;;;;14.23;8.02;;;;;;;11.85;100.00;96111.81;1032092;28;20022;-51
2021/07/02 00:53:25;;;;;;;12.23;7.53;;;;;;;11.87;100.00;96106.44;1031614;28;20072;-50
2021/07/02 00:53:57;;;;;;;14.88;7.40;;;;;;;11.85;100.00;96103.09;1031686;28;20084;-51
2021/07/02 00:54:27;;;;;;;21.10;8.48;;;;;;;11.83;100.00;96107.63;1031743;28;20027;-52
2021/07/02 00:54:58;;;;;;;11.27;7.57;;;;;;;11.84;100.00;96109.28;1031756;28;20492;-51
2021/07/02 00:55:29;;;;;;;12.13;7.78;;;;;;;11.82;100.00;96111.19;1031605;28;20030;-50
2021/07/02 00:56:00;;;;;;;12.00;7.80;;;;;;;11.81;100.00;96102.47;1031788;28;20027;-52
2021/07/02 00:56:31;;;;;;;13.68;7.78;;;;;;;11.81;100.00;96107.72;1032045;28;20591;-52
2021/07/02 00:57:03;;;;;;;13.80;7.60;;;;;;;11.82;100.00;96108.56;1035778;28;20018;-51
2021/07/02 00:57:36;;;;;;;12.75;6.88;;;;;;;11.83;100.00;96099.75;1035480;28;20034;-50
2021/07/02 00:58:06;;;;;;;14.75;7.80;;;;;;;11.79;100.00;96100.94;1035790;28;20511;-51
2021/07/02 00:58:37;;;;;;;11.50;7.60;;;;;;;11.75;100.00;96105.56;1035182;28;20061;-53
2021/07/02 00:59:08;;;;;;;13.65;7.57;;;;;;;11.74;100.00;96103.88;1031989;28;20345;-51
2021/07/02 00:59:41;;;;;;;13.98;7.35;;;;;;;11.73;100.00;96102.22;1031962;28;20026;-50
2021/07/02 01:00:12;;;;;;;12.45;7.60;;;;;;;11.69;100.00;96103.34;1032098;28;20507;-52
2021/07/02 01:00:43;;;;;;;14.18;8.02;;;;;;;11.63;100.00;96107.25;1031699;28;20025;-48
2021/07/02 01:01:15;;;;;;;17.05;7.97;;;;;;;11.65;100.00;96104.53;1031590;28;20064;-51
2021/07/02 01:01:46;;;;;;;13.15;8.07;;;;;;;11.67;100.00;96103.50;1031735;28;20497;-51
2021/07/02 01:02:16;;;;;;;12.00;7.28;;;;;;;11.70;100.00;96107.66;1031956;28;20014;-51
2021/07/02 01:02:47;;;;;;;11.75;7.30;;;;;;;11.69;100.00;96108.59;1031962;28;20041;-52
2021/07/02 01:03:18;;;;;;;13.75;8.10;;;;;;;11.69;100.00;96108.59;1032052;28;20022;-50
2021/07/02 01:03:49;;;;;;;13.20;7.22;;;;;;;11.67;100.00;96108.75;1031203;28;20519;-52
2021/07/02 01:04:19;;;;;;;13.55;7.30;;;;;;;11.67;100.00;96110.50;1032102;28;20041;-53
2021/07/02 01:04:50;;;;;;;11.52;7.22;;;;;;;11.67;100.00;96107.88;1032003;28;20077;-51
2021/07/02 01:05:21;;;;;;;12.60;7.68;;;;;;;11.67;100.00;96110.50;1032067;28;20435;-50
2021/07/02 01:05:51;;;;;;;12.52;7.35;;;;;;;11.65;100.00;96105.38;1031947;28;20032;-51
2021/07/02 01:06:22;;;;;;;11.48;7.68;;;;;;;11.66;100.00;96103.59;1032012;28;20101;-51
2021/07/02 01:06:53;;;;;;;14.13;7.68;;;;;;;11.62;100.00;96102.97;1032002;28;20034;-51
2021/07/02 01:07:23;;;;;;;13.18;7.25;;;;;;;11.61;100.00;96106.53;1032005;28;20042;-52
2021/07/02 01:07:54;;;;;;;9.57;7.05;;;;;;;11.62;100.00;96102.97;1031913;28;20476;-51
2021/07/02 01:08:25;;;;;;;9.88;7.55;;;;;;;11.56;100.00;96105.19;1031987;28;20049;-50
2021/07/02 01:08:55;;;;;;;17.83;8.02;;;;;;;11.61;100.00;96106.53;1031994;28;20111;-51
2021/07/02 01:09:26;;;;;;;15.32;7.65;;;;;;;11.65;100.00;96099.28;1032025;28;20488;-52
2021/07/02 01:09:56;;;;;;;12.25;7.40;;;;;;;11.62;100.00;96097.72;1032006;28;20018;-52
2021/07/02 01:10:27;;;;;;;10.32;7.10;;;;;;;11.62;100.00;96100.34;1031826;28;20032;-51
2021/07/02 01:10:58;;;;;;;12.10;7.18;;;;;;;11.60;100.00;96107.50;1031991;28;20021;-51
2021/07/02 01:11:28;;;;;;;11.73;6.90;;;;;;;11.58;100.00;96100.66;1031978;28;20019;-52
2021/07/02 01:11:59;;;;;;;13.63;7.53;;;;;;;11.61;100.00;96105.72;1031997;28;20084;-52
2021/07/02 01:12:29;;;;;;;14.57;7.18;;;;;;;11.63;100.00;96107.25;1031727;28;20014;-51
2021/07/02 01:13:00;;;;;;;11.10;7.00;;;;;;;11.65;100.00;96105.38;1031950;28;20441;-51
2021/07/02 01:13:31;;;;;;;10.27;6.60;;;;;;;11.65;100.00;96097.50;1031547;28;20439;-50
2021/07/02 01:14:02;;;;;;;11.13;7.07;;;;;;;11.65;100.00;96101.91;1031728;28;20030;-50
2021/07/02 01:14:33;;;;;;;12.07;7.43;;;;;;;11.70;100.00;96104.22;1031740;28;20093;-49
2021/07/02 01:15:04;;;;;;;10.25;6.25;;;;;;;11.70;100.00;96097.16;1031971;28;20472;-50
2021/07/02 01:15:35;;;;;;;14.43;7.40;;;;;;;11.70;100.00;96099.78;1031999;28;20511;-50
2021/07/02 01:16:06;;;;;;;11.30;6.78;;;;;;;11.70;100.00;96106.84;1031976;28;20022;-51
2021/07/02 01:16:38;;;;;;;11.55;6.68;;;;;;;11.71;100.00;96100.63;1031741;28;20056;-52
2021/07/02 01:17:08;;;;;;;13.13;6.95;;;;;;;11.73;100.00;96104.84;1032009;28;20549;-51
2021/07/02 01:17:39;;;;;;;12.13;7.15;;;;;;;11.74;100.00;96108.28;1032036;28;20036;-49
2021/07/02 01:18:10;;;;;;;9.68;6.60;;;;;;;11.73;100.00;96109.22;1031902;28;20018;-50
2021/07/02 01:18:41;;;;;;;10.88;6.90;;;;;;;11.73;100.00;96099.59;1031747;28;20041;-49
2021/07/02 01:19:14;;;;;;;12.18;6.53;;;;;;;11.69;100.00;96108.59;1031909;28;20453;-51
2021/07/02 01:19:47;;;;;;;9.88;6.40;;;;;;;11.67;100.00;96100.00;1032073;28;20393;-50
2021/07/02 01:20:18;;;;;;;11.77;7.05;;;;;;;11.75;100.00;96100.31;1031951;28;20029;-50
2021/07/02 01:20:50;;;;;;;10.20;6.50;;;;;;;11.77;100.00;96100.16;1031725;28;20510;-51
2021/07/02 01:21:21;;;;;;;14.60;6.32;;;;;;;11.83;100.00;96107.63;1032037;28;20014;-51
2021/07/02 01:21:54;;;;;;;13.43;7.30;;;;;;;11.83;100.00;96103.19;1032033;28;20047;-51
2021/07/02 01:22:26;;;;;;;13.63;7.18;;;;;;;11.83;100.00;96105.81;1031946;28;20476;-50
2021/07/02 01:22:57;;;;;;;8.57;6.57;;;;;;;11.78;100.00;96099.25;1031798;28;20030;-51
2021/07/02 01:23:28;;;;;;;12.32;6.97;;;;;;;11.76;100.00;96104.59;1031756;28;20021;-51
2021/07/02 01:23:59;;;;;;;8.82;5.95;;;;;;;11.78;100.00;96099.25;1031679;28;20026;-52
2021/07/02 01:24:29;;;;;;;12.40;6.75;;;;;;;11.78;100.00;96093.97;1031938;28;20033;-51
2021/07/02 01:25:00;;;;;;;12.07;6.95;;;;;;;11.80;100.00;96097.34;1031668;28;20073;-51
2021/07/02 01:25:32;;;;;;;10.02;6.63;;;;;;;11.78;100.00;96097.44;1031967;28;20050;-53
2021/07/02 01:26:03;;;;;;;8.07;6.32;;;;;;;11.79;100.00;96090.44;1032023;28;20472;-49
2021/07/02 01:26:34;;;;;;;13.07;6.68;;;;;;;11.78;100.00;96097.44;1032267;28;20388;-50
2021/07/02 01:27:05;;;;;;;10.02;7.20;;;;;;;11.77;100.00;96093.16;1031720;28;20033;-52
2021/07/02 01:27:35;;;;;;;9.23;6.22;;;;;;;11.78;100.00;96092.19;1031937;28;20080;-51
2021/07/02 01:28:06;;;;;;;11.32;6.43;;;;;;;11.78;100.00;96092.19;1031963;28;20023;-51
2021/07/02 01:28:37;;;;;;;11.40;6.68;;;;;;;11.80;100.00;96092.09;1031962;28;20025;-51
2021/07/02 01:29:07;;;;;;;9.52;6.38;;;;;;;11.81;100.00;96099.84;1031685;28;20026;-51
2021/07/02 01:29:38;;;;;;;10.73;7.25;;;;;;;11.76;100.00;96088.84;1032001;28;20461;-51
2021/07/02 01:30:10;;;;;;;16.90;6.60;;;;;;;11.80;100.00;96089.47;1031988;28;20018;-52
2021/07/02 01:30:41;;;;;;;10.52;5.88;;;;;;;11.80;100.00;96090.28;1031992;28;20018;-51
2021/07/02 01:31:11;;;;;;;10.00;6.55;;;;;;;11.83;100.00;96086.63;1031476;28;20026;-52
2021/07/02 01:31:42;;;;;;;8.88;6.22;;;;;;;11.83;100.00;96087.44;1031608;28;20053;-49
2021/07/02 01:32:15;;;;;;;8.73;6.22;;;;;;;11.83;100.00;96084.81;1031643;28;20022;-52
2021/07/02 01:32:45;;;;;;;11.10;6.70;;;;;;;11.80;100.00;96079.78;1031653;28;20141;-50
2021/07/02 01:33:16;;;;;;;10.57;6.47;;;;;;;11.83;100.00;96076.94;1031690;28;20077;-51
2021/07/02 01:33:47;;;;;;;9.95;6.50;;;;;;;11.84;100.00;96078.63;1031366;28;20038;-52
2021/07/02 01:34:18;;;;;;;11.38;7.00;;;;;;;11.79;100.00;96083.38;1032008;28;20097;-51
2021/07/02 01:34:49;;;;;;;14.45;7.60;;;;;;;11.79;100.00;96087.81;1031906;28;20519;-51
2021/07/02 01:35:20;;;;;;;9.93;7.28;;;;;;;11.76;100.00;96086.22;1031821;28;20014;-52
2021/07/02 01:35:50;;;;;;;9.68;6.82;;;;;;;11.78;100.00;96079.06;1031712;28;20051;-51
2021/07/02 01:36:22;;;;;;;11.52;6.80;;;;;;;11.81;100.00;96083.28;1031547;28;20085;-53
2021/07/02 01:36:53;;;;;;;9.57;6.00;;;;;;;11.82;100.00;96085.78;1031519;28;20121;-52
2021/07/02 01:37:24;;;;;;;10.68;6.60;;;;;;;11.82;100.00;96077.91;1031397;28;20026;-53
2021/07/02 01:37:55;;;;;;;11.73;7.00;;;;;;;11.84;100.00;96080.41;1031710;28;20420;-52
2021/07/02 01:38:25;;;;;;;9.52;7.03;;;;;;;11.80;100.00;96079.78;1031986;28;20129;-51
2021/07/02 01:38:56;;;;;;;8.68;6.28;;;;;;;11.81;100.00;96084.09;1031851;28;20022;-52
2021/07/02 01:39:26;;;;;;;8.82;6.68;;;;;;;11.86;100.00;96084.63;1031730;28;20081;-51
2021/07/02 01:39:57;;;;;;;10.98;6.55;;;;;;;11.88;100.00;96079.25;1031894;28;20023;-53
2021/07/02 01:40:28;;;;;;;9.38;6.35;;;;;;;11.91;100.00;96080.84;1031956;28;20015;-51
2021/07/02 01:40:59;;;;;;;9.30;7.18;;;;;;;11.89;100.00;96086.16;1031971;28;20022;-51
2021/07/02 01:41:30;;;;;;;13.77;7.38;;;;;;;11.87;100.00;96082.81;1031771;28;20022;-52
2021/07/02 01:42:00;;;;;;;11.52;7.05;;;;;;;11.84;100.00;96080.41;1031942;28;20038;-52
2021/07/02 01:42:31;;;;;;;9.63;6.25;;;;;;;11.87;100.00;96082.81;1031879;28;20024;-51
2021/07/02 01:43:02;;;;;;;11.38;6.28;;;;;;;11.89;100.00;96083.53;1031898;28;20014;-51
2021/07/02 01:43:32;;;;;;;7.95;6.07;;;;;;;11.95;100.00;96087.53;1031235;28;20015;-51
2021/07/02 01:44:04;;;;;;;11.05;6.30;;;;;;;11.96;100.00;96086.59;1031654;28;20018;-53
2021/07/02 01:44:35;;;;;;;8.23;6.22;;;;;;;11.97;100.00;96083.00;1031990;28;20377;-50
2021/07/02 01:45:07;;;;;;;9.95;6.65;;;;;;;11.94;100.00;96091.94;1031834;28;20373;-52
2021/07/02 01:45:37;;;;;;;13.05;6.93;;;;;;;11.99;100.00;96084.59;1031773;28;20389;-51
2021/07/02 01:46:08;;;;;;;10.48;6.40;;;;;;;11.99;100.00;96081.97;1031907;28;20014;-52
2021/07/02 01:46:39;;;;;;;10.95;6.45;;;;;;;11.97;100.00;96085.63;1031886;28;20014;-51
2021/07/02 01:47:10;;;;;;;11.13;6.88;;;;;;;11.97;100.00;96083.81;1031849;28;20015;-51
2021/07/02 01:47:40;;;;;;;9.32;6.57;;;;;;;11.99;100.00;96081.09;1031765;28;20093;-52
2021/07/02 01:48:11;;;;;;;10.48;7.00;;;;;;;11.96;100.00;96081.34;1031804;28;20049;-51
2021/07/02 01:48:43;;;;;;;8.15;6.30;;;;;;;11.98;100.00;96084.69;1031944;28;20065;-50
2021/07/02 01:49:13;;;;;;;10.07;6.32;;;;;;;11.97;100.00;96080.38;1031833;28;20030;-53
2021/07/02 01:49:44;;;;;;;10.50;6.57;;;;;;;12.01;100.00;96085.31;1031792;28;20389;-52
2021/07/02 01:50:15;;;;;;;9.18;6.28;;;;;;;12.02;100.00;96083.50;1031928;28;20166;-51
2021/07/02 01:50:45;;;;;;;10.45;6.53;;;;;;;11.98;100.00;96084.69;1031844;28;20026;-49
2021/07/02 01:51:16;;;;;;;11.07;6.70;;;;;;;11.95;100.00;96084.91;1031825;28;20105;-52
2021/07/02 01:51:46;;;;;;;10.77;6.45;;;;;;;12.00;100.00;96074.91;1031742;28;20015;-52
2021/07/02 01:52:18;;;;;;;10.13;7.05;;;;;;;12.03;100.00;96085.16;1031752;28;20617;-51
2021/07/02 01:52:48;;;;;;;9.55;6.72;;;;;;;12.04;100.00;96082.44;1031941;28;20484;-52
2021/07/02 01:53:19;;;;;;;8.18;5.75;;;;;;;12.04;100.00;96076.34;1031852;28;20022;-51
2021/07/02 01:53:50;;;;;;;10.32;6.85;;;;;;;12.07;100.00;96086.63;1031144;28;20033;-53
2021/07/02 01:54:20;;;;;;;11.98;6.20;;;;;;;12.05;100.00;96078.88;1031911;28;20105;-52
2021/07/02 01:54:51;;;;;;;9.23;6.15;;;;;;;12.10;100.00;96083.75;1031882;28;20665;-50
2021/07/02 01:55:22;;;;;;;11.48;6.68;;;;;;;12.09;100.00;96083.88;1031907;28;20014;-52
2021/07/02 01:55:52;;;;;;;9.30;5.75;;;;;;;12.06;100.00;96083.16;1031729;28;20050;-51
2021/07/02 01:56:23;;;;;;;10.25;6.22;;;;;;;12.06;100.00;96082.31;1031931;28;20018;-52
2021/07/02 01:56:54;;;;;;;9.70;6.20;;;;;;;12.08;100.00;96083.03;1031943;28;20492;-53
2021/07/02 01:57:26;;;;;;;8.85;5.97;;;;;;;12.13;100.00;96082.72;1031630;28;20109;-52
2021/07/02 01:57:57;;;;;;;9.82;5.85;;;;;;;12.20;100.00;96086.53;1031778;28;20015;-51
2021/07/02 01:58:28;;;;;;;11.25;6.32;;;;;;;12.18;100.00;96083.19;1031866;28;20010;-51
2021/07/02 01:58:58;;;;;;;9.35;6.43;;;;;;;12.15;100.00;96081.66;1031904;28;20014;-51
2021/07/02 01:59:29;;;;;;;12.00;6.35;;;;;;;12.14;100.00;96079.94;1031886;28;20097;-52
2021/07/02 01:59:59;;;;;;;8.30;5.70;;;;;;;12.14;100.00;96077.31;1031849;28;20018;-52
2021/07/02 02:00:31;;;;;;;9.93;6.30;;;;;;;12.11;100.00;96069.69;1031872;28;20011;-53
2021/07/02 02:01:01;;;;;;;10.32;6.15;;;;;;;12.12;100.00;96076.59;1031814;28;20014;-51
2021/07/02 02:01:32;;;;;;;8.63;6.35;;;;;;;12.12;100.00;96076.59;1031875;28;20019;-53
2021/07/02 02:02:03;;;;;;;9.32;5.95;;;;;;;12.13;100.00;96077.47;1031924;28;20069;-52
2021/07/02 02:02:33;;;;;;;11.32;6.50;;;;;;;12.14;100.00;96076.50;1031720;28;20017;-52
2021/07/02 02:03:04;;;;;;;11.40;7.20;;;;;;;12.10;100.00;96078.50;1031907;28;20365;-53
2021/07/02 02:03:35;;;;;;;11.77;6.22;;;;;;;12.06;100.00;96080.53;1031429;28;20007;-51
2021/07/02 02:04:05;;;;;;;10.65;6.55;;;;;;;12.11;100.00;96088.09;1031673;28;20011;-52
2021/07/02 02:04:36;;;;;;;9.98;6.88;;;;;;;12.16;100.00;96082.47;1031731;28;20477;-52
2021/07/02 02:05:07;;;;;;;10.60;6.68;;;;;;;12.11;100.00;96082.00;1031853;28;20090;-52
2021/07/02 02:05:38;;;;;;;9.90;6.25;;;;;;;12.13;100.00;96085.34;1031926;28;20014;-53
2021/07/02 02:06:08;;;;;;;10.18;6.20;;;;;;;12.10;100.00;96081.13;1031876;28;20018;-52
2021/07/02 02:06:39;;;;;;;8.23;5.88;;;;;;;12.11;100.00;96079.38;1031721;28;20354;-52
2021/07/02 02:07:10;;;;;;;12.63;6.30;;;;;;;12.10;100.00;96083.75;1035523;28;20010;-51
2021/07/02 02:07:40;;;;;;;8.18;6.20;;;;;;;12.13;100.00;96085.34;1035644;28;20504;-53
2021/07/02 02:08:11;;;;;;;10.80;6.15;;;;;;;12.16;100.00;96091.22;1035640;28;20014;-52
2021/07/02 02:08:41;;;;;;;12.05;5.85;;;;;;;12.16;100.00;96075.44;1035257;28;20480;-49
2021/07/02 02:09:12;;;;;;;9.43;5.85;;;;;;;12.17;100.00;96086.78;1031873;28;20041;-53
2021/07/02 02:09:43;;;;;;;9.65;6.38;;;;;;;12.16;100.00;96090.34;1031828;28;20037;-51
2021/07/02 02:10:14;;;;;;;9.40;6.60;;;;;;;12.18;100.00;96084.06;1031912;28;20010;-51
2021/07/02 02:10:44;;;;;;;10.65;6.28;;;;;;;12.16;100.00;96083.34;1031731;28;20023;-50
2021/07/02 02:11:15;;;;;;;9.43;6.45;;;;;;;12.16;100.00;96080.69;1031872;28;20015;-50
2021/07/02 02:11:45;;;;;;;10.73;6.63;;;;;;;12.17;100.00;96082.38;1031939;28;20042;-51
2021/07/02 02:12:16;;;;;;;10.43;6.20;;;;;;;12.16;100.00;96079.84;1031766;28;20413;-51
2021/07/02 02:12:47;;;;;;;9.07;6.30;;;;;;;12.16;100.00;96083.34;1032237;28;20018;-51
2021/07/02 02:13:17;;;;;;;8.82;6.40;;;;;;;12.16;100.00;96079.84;1032604;28;20018;-52
2021/07/02 02:13:48;;;;;;;10.65;5.80;;;;;;;12.15;100.00;96079.00;1032094;28;20358;-52
2021/07/02 02:14:18;;;;;;;9.98;6.03;;;;;;;12.17;100.00;96078.91;1032623;28;20366;-54
2021/07/02 02:14:49;;;;;;;11.77;6.25;;;;;;;12.15;100.00;96080.81;1032490;28;20102;-52
2021/07/02 02:15:20;;;;;;;10.20;6.20;;;;;;;12.18;100.00;96081.44;1032633;28;20499;-53
2021/07/02 02:15:51;;;;;;;8.70;5.40;;;;;;;12.19;100.00;96083.09;1032642;28;20098;-52
2021/07/02 02:16:21;;;;;;;9.02;6.53;;;;;;;12.20;100.00;96082.16;1032580;28;20213;-52
2021/07/02 02:16:53;;;;;;;10.13;6.10;;;;;;;12.18;100.00;96081.44;1032489;28;20026;-52
2021/07/02 02:17:24;;;;;;;11.52;7.00;;;;;;;12.16;100.00;96078.06;1032490;28;20046;-52
2021/07/02 02:17:54;;;;;;;9.60;6.30;;;;;;;12.17;100.00;96082.38;1032692;28;20030;-52
2021/07/02 02:18:25;;;;;;;7.68;5.68;;;;;;;12.18;100.00;96078.78;1032670;28;20029;-52
2021/07/02 02:18:56;;;;;;;11.05;6.00;;;;;;;12.19;100.00;96087.50;1032524;28;20109;-51
2021/07/02 02:19:26;;;;;;;9.20;5.60;;;;;;;12.23;100.00;96084.53;1032516;28;20018;-51
2021/07/02 02:19:57;;;;;;;10.45;6.57;;;;;;;12.20;100.00;96084.78;1032623;28;20022;-53
2021/07/02 02:20:28;;;;;;;8.15;6.07;;;;;;;12.21;100.00;96086.44;1032695;28;20026;-52
2021/07/02 02:20:58;;;;;;;11.02;6.22;;;;;;;12.22;100.00;96082.03;1032548;28;20388;-51
2021/07/02 02:21:29;;;;;;;12.32;6.38;;;;;;;12.24;100.00;96088.00;1032551;28;20033;-53
2021/07/02 02:21:59;;;;;;;9.57;5.97;;;;;;;12.21;100.00;96081.19;1032715;28;20022;-51
2021/07/02 02:22:30;;;;;;;9.07;5.85;;;;;;;12.20;100.00;96087.41;1032322;28;20153;-52